Time;durP1;ratioP1;P1;durP2;ratioP2;P2;SDS_P1;SDS_P2;PMS_P1;PMS_P2;Temp;Humidity;BMP_temperature;BMP_pressure;BME280_temperature;BME280_humidity;BME280_pressure;Samples;Min_cycle;Max_cycle;Signal;HPM_P1;HPM_P2
2024/01/05 00:01:57;;;;;;;1.00;0.90;;;23.40;49.20;;;;;;4958383;28;92057;-63
2024/01/05 00:04:25;;;;;;;2.27;1.50;;;23.30;49.10;;;;;;4957976;28;91382;-63
2024/01/05 00:06:54;;;;;;;2.13;0.77;;;23.30;49.10;;;;;;4957717;28;94271;-63
2024/01/05 00:09:22;;;;;;;3.90;1.03;;;23.30;49.20;;;;;;4957370;28;96226;-63
2024/01/05 00:11:52;;;;;;;1.50;1.03;;;23.30;49.20;;;;;;4963239;28;92998;-63
2024/01/05 00:14:21;;;;;;;1.53;1.00;;;23.20;49.30;;;;;;4977530;28;91954;-63
2024/01/05 00:16:49;;;;;;;0.93;0.80;;;23.20;49.30;;;;;;4975574;28;94216;-63
2024/01/05 00:19:17;;;;;;;4.30;0.90;;;23.20;49.30;;;;;;4977039;28;93820;-63
2024/01/05 00:21:45;;;;;;;1.40;0.90;;;23.20;49.30;;;;;;4977653;28;92102;-63
2024/01/05 00:24:15;;;;;;;2.47;0.97;;;23.20;49.30;;;;;;4977143;28;92209;-63
2024/01/05 00:26:43;;;;;;;1.93;0.80;;;23.20;49.40;;;;;;4973703;28;94219;-63
2024/01/05 00:29:11;;;;;;;1.73;1.10;;;23.20;49.40;;;;;;4957862;28;93913;-63
2024/01/05 00:31:40;;;;;;;3.33;1.37;;;23.10;49.40;;;;;;4958207;28;92066;-63
2024/01/05 00:34:08;;;;;;;3.63;1.47;;;23.10;49.60;;;;;;4956940;28;92089;-62
2024/01/05 00:36:36;;;;;;;0.70;0.70;;;23.10;49.40;;;;;;4957255;28;95223;-63
2024/01/05 00:39:04;;;;;;;0.90;0.60;;;23.10;49.40;;;;;;4957706;28;94855;-62
2024/01/05 00:41:34;;;;;;;1.57;0.57;;;23.00;49.40;;;;;;4957942;28;92004;-62
2024/01/05 00:44:02;;;;;;;1.10;1.03;;;23.10;49.60;;;;;;4957410;28;92113;-63
2024/01/05 00:46:30;;;;;;;1.03;0.93;;;23.00;49.50;;;;;;4957418;28;94294;-63
2024/01/05 00:48:58;;;;;;;2.77;1.13;;;23.00;49.60;;;;;;4957727;28;93756;-63
2024/01/05 00:51:26;;;;;;;4.17;1.07;;;23.00;50.10;;;;;;4958423;28;91840;-63
2024/01/05 00:53:55;;;;;;;2.93;0.83;;;23.00;49.60;;;;;;4957983;28;91358;-62
2024/01/05 00:56:23;;;;;;;3.60;0.53;;;23.00;49.60;;;;;;4957980;28;94436;-62
2024/01/05 00:58:53;;;;;;;1.20;0.90;;;23.00;50.30;;;;;;4973803;28;93943;-63
2024/01/05 01:01:21;;;;;;;1.40;1.00;;;22.90;49.60;;;;;;4977323;28;93106;-62
2024/01/05 01:03:49;;;;;;;1.93;1.10;;;23.00;49.70;;;;;;4977112;28;92481;-62
2024/01/05 01:06:18;;;;;;;2.20;0.83;;;23.70;50.40;;;;;;4976881;28;94135;-63
2024/01/05 01:08:46;;;;;;;1.20;0.87;;;22.90;49.80;;;;;;4963885;28;93723;-63
2024/01/05 01:11:14;;;;;;;1.57;0.87;;;22.90;49.70;;;;;;4957915;28;91959;-62
2024/01/05 01:13:42;;;;;;;1.40;0.93;;;22.90;49.70;;;;;;4956841;28;92070;-63
2024/01/05 01:16:12;;;;;;;0.60;0.60;;;22.80;49.60;;;;;;4956649;28;94889;-63
2024/01/05 01:18:40;;;;;;;1.07;0.73;;;22.90;49.80;;;;;;4957953;28;93172;-62
2024/01/05 01:21:08;;;;;;;2.33;0.90;;;22.90;49.80;;;;;;4957923;28;92074;-62
2024/01/05 01:23:36;;;;;;;1.67;0.70;;;22.80;49.70;;;;;;4957753;28;92669;-62
2024/01/05 01:26:04;;;;;;;1.90;0.70;;;22.80;49.80;;;;;;4956386;28;95160;-63
2024/01/05 01:28:32;;;;;;;0.80;0.80;;;22.80;49.80;;;;;;4956852;28;94791;-63
2024/01/05 01:31:00;;;;;;;1.40;0.93;;;22.80;49.80;;;;;;4957004;28;92093;-63
2024/01/05 01:33:30;;;;;;;0.60;0.60;;;22.80;49.80;;;;;;4956206;28;93614;-63
2024/01/05 01:35:58;;;;;;;0.57;0.40;;;22.80;49.90;;;;;;4956595;28;94163;-63
2024/01/05 01:38:26;;;;;;;1.33;0.80;;;22.70;49.80;;;;;;4966335;28;94030;-63
2024/01/05 01:40:56;;;;;;;1.03;0.93;;;22.70;49.80;;;;;;4965051;28;91983;-62
2024/01/05 01:43:25;;;;;;;1.00;0.80;;;22.70;49.80;;;;;;4956553;28;92168;-62
2024/01/05 01:45:54;;;;;;;1.07;0.70;;;22.70;49.90;;;;;;4956907;28;94407;-63
2024/01/05 01:48:22;;;;;;;5.73;0.97;;;22.70;49.90;;;;;;4966589;28;93930;-62
2024/01/05 01:50:51;;;;;;;0.20;0.20;;;22.70;49.90;;;;;;4970068;28;92823;-62
2024/01/05 01:53:20;;;;;;;0.80;0.70;;;22.80;50.00;;;;;;4960161;28;92329;-63
2024/01/05 01:55:48;;;;;;;0.53;0.53;;;22.70;49.90;;;;;;4968039;28;94160;-62
2024/01/05 01:58:17;;;;;;;0.50;0.50;;;22.70;49.90;;;;;;4971797;28;93822;-63
2024/01/05 02:00:45;;;;;;;0.47;0.47;;;22.70;50.00;;;;;;4966560;28;92372;-62
2024/01/05 02:03:13;;;;;;;0.57;0.57;;;22.60;50.00;;;;;;4976009;28;92103;-63
2024/01/05 02:05:41;;;;;;;2.40;0.80;;;22.60;50.10;;;;;;4959632;28;94101;-63
2024/01/05 02:08:11;;;;;;;0.57;0.57;;;22.60;50.00;;;;;;4960110;28;93836;-64
2024/01/05 02:10:40;;;;;;;1.50;0.80;;;22.60;50.10;;;;;;4959418;28;92142;-63
2024/01/05 02:13:09;;;;;;;1.30;0.50;;;22.60;50.00;;;;;;4959713;28;92697;-62
2024/01/05 02:15:37;;;;;;;0.70;0.60;;;22.60;50.00;;;;;;4963067;28;95208;-63
2024/01/05 02:18:12;;;;;;;1.10;0.53;;;22.60;50.10;;;;;;4979289;28;94834;-63
2024/01/05 02:20:40;;;;;;;0.87;0.87;;;22.50;50.00;;;;;;4975324;28;92146;-63
2024/01/05 02:23:09;;;;;;;1.60;1.13;;;22.50;50.00;;;;;;4960863;28;91963;-63
2024/01/05 02:25:38;;;;;;;0.97;0.40;;;22.60;50.10;;;;;;4975470;28;94217;-63
2024/01/05 02:28:06;;;;;;;1.37;0.70;;;22.60;50.30;;;;;;4961472;28;93823;-63
2024/01/05 02:30:34;;;;;;;3.00;0.70;;;22.60;50.10;;;;;;4977913;28;92064;-62
2024/01/05 02:33:02;;;;;;;0.53;0.50;;;22.60;50.20;;;;;;4959205;28;91406;-63
2024/01/05 02:35:30;;;;;;;0.40;0.40;;;22.50;50.10;;;;;;4959777;28;94393;-62
2024/01/05 02:37:58;;;;;;;0.47;0.47;;;22.50;50.10;;;;;;4976652;28;94030;-63
2024/01/05 02:40:26;;;;;;;2.93;1.07;;;22.50;50.20;;;;;;4955263;28;92995;-63
2024/01/05 02:42:56;;;;;;;4.00;0.97;;;22.50;50.10;;;;;;4965736;28;92219;-63
2024/01/05 02:45:24;;;;;;;0.70;0.60;;;22.50;50.20;;;;;;4974352;28;94185;-63
2024/01/05 02:47:52;;;;;;;0.80;0.80;;;22.40;50.10;;;;;;4956567;28;93815;-62
2024/01/05 02:50:21;;;;;;;0.70;0.67;;;22.50;50.20;;;;;;4955471;28;92766;-63
2024/01/05 02:52:49;;;;;;;1.20;0.60;;;22.40;50.20;;;;;;4955748;28;92136;-62
2024/01/05 02:55:17;;;;;;;0.50;0.50;;;22.40;50.20;;;;;;4956296;28;94070;-63
2024/01/05 02:57:45;;;;;;;1.17;0.73;;;22.40;50.30;;;;;;4971376;28;93863;-62
2024/01/05 03:00:15;;;;;;;1.13;0.90;;;22.40;50.30;;;;;;4976168;28;92154;-62
2024/01/05 03:02:43;;;;;;;1.20;0.67;;;22.40;50.30;;;;;;4966919;28;92813;-63
2024/01/05 03:05:11;;;;;;;4.33;0.73;;;22.40;50.30;;;;;;4955439;28;95133;-62
2024/01/05 03:07:40;;;;;;;0.57;0.57;;;22.40;50.30;;;;;;4965849;28;94947;-63
2024/01/05 03:10:09;;;;;;;0.57;0.40;;;22.40;50.30;;;;;;4975589;28;92127;-62
2024/01/05 03:12:37;;;;;;;3.63;0.90;;;22.30;50.20;;;;;;4961943;28;92095;-62
2024/01/05 03:15:06;;;;;;;1.73;0.43;;;22.30;50.20;;;;;;4955367;28;96474;-62
2024/01/05 03:17:35;;;;;;;0.60;0.50;;;22.30;50.20;;;;;;4968056;28;92985;-62
2024/01/05 03:20:04;;;;;;;1.27;0.60;;;22.30;50.30;;;;;;4975246;28;93662;-62
2024/01/05 03:22:32;;;;;;;2.87;0.90;;;22.30;50.20;;;;;;4964253;28;91324;-62
2024/01/05 03:25:00;;;;;;;0.63;0.50;;;22.30;50.30;;;;;;4955968;28;92850;-63
2024/01/05 03:27:27;;;;;;;0.60;0.50;;;22.30;50.30;;;;;;4965687;28;94649;-63
2024/01/05 03:29:56;;;;;;;0.50;0.50;;;22.30;50.30;;;;;;4960205;28;93009;-63
2024/01/05 03:32:24;;;;;;;1.23;0.77;;;22.30;50.30;;;;;;4964038;28;92199;-63
2024/01/05 03:34:54;;;;;;;0.27;0.27;;;22.30;50.50;;;;;;4960360;28;94381;-63
2024/01/05 03:37:22;;;;;;;1.10;0.83;;;22.30;50.50;;;;;;4957295;28;93898;-63
2024/01/05 03:39:50;;;;;;;0.40;0.40;;;22.30;50.50;;;;;;4956830;28;92604;-63
2024/01/05 03:42:18;;;;;;;0.63;0.63;;;22.30;50.50;;;;;;4958987;28;92286;-63
2024/01/05 03:44:46;;;;;;;0.40;0.40;;;22.20;50.50;;;;;;4956831;28;94523;-64
2024/01/05 03:47:14;;;;;;;0.67;0.67;;;22.30;50.60;;;;;;4962190;28;93797;-63
2024/01/05 03:49:42;;;;;;;0.60;0.60;;;22.20;50.60;;;;;;4971446;28;92281;-63
2024/01/05 03:52:12;;;;;;;0.30;0.30;;;22.20;50.60;;;;;;4968414;28;92160;-63
2024/01/05 03:54:40;;;;;;;0.87;0.83;;;22.20;50.70;;;;;;4960795;28;95044;-63
2024/01/05 03:57:08;;;;;;;0.50;0.50;;;22.20;50.70;;;;;;4959268;28;94869;-63
2024/01/05 03:59:36;;;;;;;0.97;0.53;;;22.20;50.60;;;;;;4954916;28;92158;-63
2024/01/05 04:02:04;;;;;;;0.57;0.50;;;22.20;50.60;;;;;;4952754;28;92627;-63
2024/01/05 04:04:32;;;;;;;1.33;1.20;;;22.10;50.60;;;;;;4957855;28;94029;-63
2024/01/05 04:07:01;;;;;;;0.50;0.50;;;22.20;50.70;;;;;;4957510;28;93963;-63
2024/01/05 04:09:31;;;;;;;2.47;0.60;;;22.10;50.70;;;;;;4957865;28;92074;-63
2024/01/05 04:11:59;;;;;;;0.50;0.50;;;22.10;50.70;;;;;;4957777;28;91361;-63
2024/01/05 04:14:27;;;;;;;1.80;0.70;;;22.10;50.80;;;;;;4960330;28;94495;-63
2024/01/05 04:16:55;;;;;;;0.40;0.40;;;22.10;50.80;;;;;;4956173;28;94193;-63
2024/01/05 04:19:23;;;;;;;1.70;0.73;;;22.10;50.80;;;;;;4957809;28;93015;-63
2024/01/05 04:21:51;;;;;;;0.57;0.57;;;22.10;50.80;;;;;;4962610;28;92303;-63
2024/01/05 04:24:19;;;;;;;0.33;0.30;;;22.00;50.70;;;;;;4968583;28;94322;-63
2024/01/05 04:26:49;;;;;;;0.40;0.40;;;22.10;50.90;;;;;;4973085;28;94225;-63
2024/01/05 04:29:17;;;;;;;2.00;0.70;;;22.00;50.80;;;;;;4971661;28;92191;-63
2024/01/05 04:31:45;;;;;;;0.57;0.43;;;22.00;50.80;;;;;;4957989;28;92059;-63
2024/01/05 04:34:13;;;;;;;0.40;0.40;;;21.90;50.70;;;;;;4958240;28;93040;-63
2024/01/05 04:36:41;;;;;;;0.40;0.40;;;22.00;51.50;;;;;;4974254;28;94497;-63
2024/01/05 04:39:10;;;;;;;0.40;0.40;;;22.00;50.90;;;;;;4977261;28;92099;-63
2024/01/05 04:41:38;;;;;;;0.47;0.37;;;22.00;50.80;;;;;;4962087;28;92092;-63
2024/01/05 04:44:07;;;;;;;0.60;0.60;;;22.00;51.00;;;;;;4957333;28;95538;-63
2024/01/05 04:46:36;;;;;;;0.27;0.27;;;22.00;51.00;;;;;;4957830;28;95059;-63
2024/01/05 04:49:04;;;;;;;0.70;0.70;;;22.00;51.00;;;;;;4958403;28;92097;-63
2024/01/05 04:51:32;;;;;;;0.20;0.20;;;22.00;51.10;;;;;;4970010;28;92143;-62
2024/01/05 04:54:00;;;;;;;2.57;0.90;;;22.00;51.00;;;;;;4962243;28;94169;-63
2024/01/05 04:56:28;;;;;;;0.63;0.63;;;21.90;50.90;;;;;;4958281;28;97016;-63
2024/01/05 04:58:56;;;;;;;0.60;0.60;;;21.90;51.60;;;;;;4959268;28;92167;-63
2024/01/05 05:01:25;;;;;;;1.07;0.40;;;22.00;51.10;;;;;;4958537;28;91332;-63
2024/01/05 05:03:53;;;;;;;0.73;0.60;;;21.90;51.10;;;;;;4969524;28;94239;-63
2024/01/05 05:06:21;;;;;;;1.70;0.87;;;22.00;51.20;;;;;;4976797;28;93572;-62
2024/01/05 05:08:50;;;;;;;0.67;0.50;;;21.90;51.10;;;;;;4965182;28;92764;-62
2024/01/05 05:11:18;;;;;;;0.83;0.70;;;21.90;51.10;;;;;;4957518;28;92098;-63
2024/01/05 05:13:46;;;;;;;0.50;0.50;;;21.90;51.10;;;;;;4958676;28;93202;-62
2024/01/05 05:16:14;;;;;;;2.67;0.80;;;21.90;51.20;;;;;;4958504;28;93853;-62
2024/01/05 05:18:43;;;;;;;0.63;0.53;;;21.90;51.10;;;;;;4966246;28;91907;-62
2024/01/05 05:21:11;;;;;;;0.40;0.40;;;21.90;51.20;;;;;;4977727;28;92357;-62
2024/01/05 05:23:39;;;;;;;0.90;0.60;;;21.90;51.20;;;;;;4974814;28;94250;-62
2024/01/05 05:26:07;;;;;;;0.77;0.70;;;21.80;51.10;;;;;;4980070;28;93804;-62
2024/01/05 05:28:35;;;;;;;1.53;0.87;;;21.90;51.20;;;;;;4972469;28;92125;-62
2024/01/05 05:31:03;;;;;;;1.50;0.77;;;21.80;51.20;;;;;;4960793;28;92228;-62
2024/01/05 05:33:32;;;;;;;2.10;0.87;;;21.80;51.20;;;;;;4959876;28;95141;-62
2024/01/05 05:36:02;;;;;;;1.03;0.80;;;21.80;51.30;;;;;;4960507;28;95052;-62
2024/01/05 05:38:30;;;;;;;0.87;0.43;;;21.80;51.40;;;;;;4960346;28;92060;-62
2024/01/05 05:40:58;;;;;;;0.83;0.80;;;21.80;51.30;;;;;;4960544;28;92372;-63
2024/01/05 05:43:26;;;;;;;1.97;0.90;;;21.80;51.30;;;;;;4959730;28;94117;-62
2024/01/05 05:45:55;;;;;;;2.00;0.70;;;21.80;51.30;;;;;;4960973;28;93921;-62
2024/01/05 05:48:23;;;;;;;0.80;0.63;;;21.80;51.50;;;;;;4961163;28;92026;-62
2024/01/05 05:50:52;;;;;;;0.30;0.30;;;21.80;51.40;;;;;;4960660;28;91363;-62
2024/01/05 05:53:21;;;;;;;0.90;0.83;;;21.80;51.40;;;;;;4959713;28;94104;-62
2024/01/05 05:55:49;;;;;;;2.67;1.00;;;21.70;51.40;;;;;;4960968;28;93837;-63
2024/01/05 05:58:17;;;;;;;1.37;0.80;;;21.70;51.40;;;;;;4960650;28;92853;-62
2024/01/05 06:00:45;;;;;;;0.50;0.50;;;21.70;51.50;;;;;;4960656;28;92219;-63
2024/01/05 06:03:14;;;;;;;0.97;0.70;;;21.70;51.40;;;;;;4960218;28;94264;-63
2024/01/05 06:05:42;;;;;;;0.80;0.47;;;21.70;51.40;;;;;;4959883;28;93923;-62
2024/01/05 06:08:10;;;;;;;4.77;0.80;;;21.70;51.40;;;;;;4959942;28;92078;-62
2024/01/05 06:10:40;;;;;;;0.70;0.70;;;21.70;51.50;;;;;;4959801;28;92115;-62
2024/01/05 06:13:08;;;;;;;0.60;0.47;;;21.70;51.50;;;;;;4959560;28;94056;-62
2024/01/05 06:15:36;;;;;;;0.50;0.50;;;21.70;51.70;;;;;;4960373;28;93585;-62
2024/01/05 06:18:05;;;;;;;0.50;0.50;;;21.70;51.60;;;;;;4961023;28;91924;-62
2024/01/05 06:20:33;;;;;;;0.80;0.70;;;21.70;51.50;;;;;;4959930;28;92160;-63
2024/01/05 06:23:01;;;;;;;0.40;0.40;;;21.70;51.60;;;;;;4959099;28;95196;-62
2024/01/05 06:25:29;;;;;;;0.57;0.57;;;21.70;51.70;;;;;;4959161;28;94908;-62
2024/01/05 06:27:59;;;;;;;0.60;0.60;;;21.60;51.60;;;;;;4960018;28;92110;-62
2024/01/05 06:30:27;;;;;;;0.70;0.50;;;21.60;51.60;;;;;;4959624;28;92201;-63
2024/01/05 06:32:55;;;;;;;0.50;0.50;;;21.70;51.70;;;;;;4958651;28;94192;-63
2024/01/05 06:35:23;;;;;;;0.50;0.50;;;21.60;51.60;;;;;;4959804;28;93876;-62
2024/01/05 06:37:51;;;;;;;0.63;0.63;;;21.60;51.60;;;;;;4959816;28;92007;-62
2024/01/05 06:40:20;;;;;;;1.10;0.70;;;21.60;51.60;;;;;;4960376;28;91302;-63
2024/01/05 06:42:48;;;;;;;0.80;0.47;;;21.60;51.70;;;;;;4959308;28;94049;-62
2024/01/05 06:45:18;;;;;;;0.20;0.20;;;21.60;51.70;;;;;;4959626;28;93832;-62
2024/01/05 06:47:46;;;;;;;0.50;0.50;;;21.60;51.70;;;;;;4959187;28;93071;-62
2024/01/05 06:50:14;;;;;;;0.60;0.60;;;21.60;51.70;;;;;;4958727;28;92120;-63
2024/01/05 06:52:43;;;;;;;0.80;0.50;;;21.60;52.40;;;;;;4959997;28;94445;-62
2024/01/05 06:55:11;;;;;;;1.23;0.80;;;21.60;51.80;;;;;;4959621;28;94130;-62
2024/01/05 06:57:39;;;;;;;0.87;0.57;;;21.60;51.90;;;;;;4959956;28;92093;-63
2024/01/05 07:00:09;;;;;;;1.13;0.60;;;21.60;51.90;;;;;;4959463;28;92079;-62
2024/01/05 07:02:40;;;;;;;0.30;0.30;;;21.50;51.70;;;;;;4958488;28;94873;-62
2024/01/05 07:05:08;;;;;;;0.30;0.30;;;21.50;51.80;;;;;;4959324;28;93901;-63
2024/01/05 07:07:39;;;;;;;0.30;0.30;;;21.50;51.80;;;;;;4959447;28;92125;-63
2024/01/05 07:10:08;;;;;;;0.37;0.37;;;21.50;51.80;;;;;;4959173;28;92503;-62
2024/01/05 07:12:38;;;;;;;0.40;0.40;;;21.50;51.90;;;;;;4958391;28;95201;-63
2024/01/05 07:15:07;;;;;;;3.40;0.83;;;21.50;51.80;;;;;;4958723;28;95136;-62
2024/01/05 07:17:35;;;;;;;0.77;0.63;;;21.40;51.70;;;;;;4959685;28;92109;-62
2024/01/05 07:20:06;;;;;;;0.27;0.23;;;21.50;51.80;;;;;;4959394;28;92109;-62
2024/01/05 07:22:34;;;;;;;0.30;0.30;;;21.50;51.80;;;;;;4958712;28;94167;-62
2024/01/05 07:25:02;;;;;;;1.03;0.40;;;21.50;51.90;;;;;;4958389;28;93784;-63
2024/01/05 07:27:30;;;;;;;0.70;0.50;;;21.50;51.90;;;;;;4958853;28;92034;-62
2024/01/05 07:29:58;;;;;;;0.40;0.37;;;21.80;52.30;;;;;;4959028;28;91223;-62
2024/01/05 07:32:26;;;;;;;0.93;0.50;;;21.50;51.90;;;;;;4957124;28;96486;-62
2024/01/05 07:34:54;;;;;;;0.90;0.63;;;21.50;52.00;;;;;;4958473;28;94080;-62
2024/01/05 07:37:24;;;;;;;0.20;0.20;;;21.50;52.00;;;;;;4959019;28;92905;-62
2024/01/05 07:39:52;;;;;;;0.93;0.70;;;21.50;52.00;;;;;;4959059;28;92061;-62
2024/01/05 07:42:20;;;;;;;0.50;0.43;;;21.50;51.90;;;;;;4958765;28;94083;-62
2024/01/05 07:44:48;;;;;;;0.60;0.60;;;21.60;52.10;;;;;;4958191;28;93975;-62
2024/01/05 07:47:17;;;;;;;0.30;0.30;;;21.70;52.00;;;;;;4958734;28;92108;-62
2024/01/05 07:49:44;;;;;;;0.90;0.90;;;21.80;52.20;;;;;;4958500;28;92010;-62
2024/01/05 07:52:13;;;;;;;0.93;0.60;;;21.90;51.90;;;;;;4958209;28;94255;-62
2024/01/05 07:54:42;;;;;;;2.23;1.20;;;22.10;51.80;;;;;;4958648;28;93840;-63
2024/01/05 07:57:11;;;;;;;1.70;1.17;;;22.30;51.70;;;;;;4959074;28;92070;-63
2024/01/05 07:59:39;;;;;;;2.23;1.03;;;22.50;51.60;;;;;;4957686;28;91989;-63
2024/01/05 08:02:07;;;;;;;2.23;1.07;;;22.80;51.60;;;;;;4957293;28;95080;-62
2024/01/05 08:04:36;;;;;;;1.30;0.90;;;23.00;51.50;;;;;;4958450;28;94751;-63
2024/01/05 08:07:04;;;;;;;1.90;1.20;;;23.20;51.40;;;;;;4959003;28;92062;-62
2024/01/05 08:09:32;;;;;;;1.57;1.43;;;23.40;51.30;;;;;;4958106;28;92383;-63
2024/01/05 08:12:02;;;;;;;2.50;1.40;;;23.60;51.20;;;;;;4958412;28;94528;-62
2024/01/05 08:14:30;;;;;;;1.30;1.20;;;23.70;51.00;;;;;;4958107;28;92779;-62
2024/01/05 08:16:58;;;;;;;1.53;1.43;;;23.90;50.90;;;;;;4958130;28;91985;-62
2024/01/05 08:19:26;;;;;;;2.80;1.40;;;24.00;50.80;;;;;;4958599;28;91342;-63
2024/01/05 08:21:54;;;;;;;3.60;1.87;;;24.00;50.70;;;;;;4957405;28;94194;-62
2024/01/05 08:24:25;;;;;;;1.67;1.57;;;24.10;50.70;;;;;;4958333;28;93882;-62
2024/01/05 08:26:53;;;;;;;1.50;1.40;;;24.10;50.70;;;;;;4958114;28;92923;-62
2024/01/05 08:29:23;;;;;;;2.10;1.87;;;24.10;50.80;;;;;;4958698;28;92387;-62
2024/01/05 08:31:51;;;;;;;2.00;1.67;;;24.10;50.70;;;;;;4957625;28;94165;-62
2024/01/05 08:34:19;;;;;;;3.10;2.00;;;24.20;50.80;;;;;;4956758;28;93911;-62
2024/01/05 08:36:47;;;;;;;2.93;2.03;;;24.20;50.60;;;;;;4959083;28;92026;-63
2024/01/05 08:39:15;;;;;;;2.57;1.47;;;24.20;50.60;;;;;;4957781;28;92148;-62
2024/01/05 08:41:43;;;;;;;2.37;1.50;;;24.30;50.60;;;;;;4957776;28;94242;-62
2024/01/05 08:44:11;;;;;;;2.20;2.00;;;24.20;50.60;;;;;;4959007;28;94203;-63
2024/01/05 08:46:41;;;;;;;3.37;1.93;;;24.20;50.60;;;;;;4957468;28;92223;-63
2024/01/05 08:49:09;;;;;;;2.23;1.97;;;24.10;50.60;;;;;;4956530;28;92230;-62
2024/01/05 08:51:42;;;;;;;5.83;2.10;;;24.10;50.70;;;;;;4969198;28;95228;-62
2024/01/05 08:54:10;;;;;;;1.87;1.53;;;24.00;50.60;;;;;;4977058;28;94892;-62
2024/01/05 08:56:39;;;;;;;3.40;2.27;;;24.10;50.90;;;;;;4940995;28;92060;-63
2024/01/05 08:59:07;;;;;;;1.90;1.70;;;23.90;50.70;;;;;;4941639;28;91956;-63
2024/01/05 09:01:35;;;;;;;2.73;1.97;;;23.90;50.80;;;;;;4941381;28;94361;-63
2024/01/05 09:04:10;;;;;;;4.07;1.50;;;23.80;50.80;;;;;;4941303;28;93884;-63
2024/01/05 09:06:38;;;;;;;1.83;1.60;;;23.70;50.90;;;;;;4946336;28;91934;-63
2024/01/05 09:09:06;;;;;;;3.60;2.27;;;23.70;51.00;;;;;;4981084;28;91377;-64
2024/01/05 09:11:35;;;;;;;2.23;1.63;;;23.60;51.00;;;;;;4980520;28;94108;-63
2024/01/05 09:14:02;;;;;;;3.73;2.00;;;23.60;51.70;;;;;;4980358;28;93813;-63
2024/01/05 09:16:31;;;;;;;3.63;1.90;;;23.60;51.20;;;;;;4980108;28;93047;-64
2024/01/05 09:18:59;;;;;;;2.10;1.90;;;23.60;51.30;;;;;;4980799;28;92103;-64
2024/01/05 09:21:28;;;;;;;2.73;1.67;;;23.50;51.30;;;;;;4980661;28;94245;-63
2024/01/05 09:23:56;;;;;;;2.37;1.80;;;23.40;51.20;;;;;;4980540;28;93952;-63
2024/01/05 09:26:24;;;;;;;6.63;1.87;;;23.40;51.30;;;;;;4980343;28;91982;-63
2024/01/05 09:28:52;;;;;;;2.07;1.80;;;23.40;51.30;;;;;;4980288;28;92103;-62
2024/01/05 09:31:20;;;;;;;2.17;1.70;;;23.30;51.30;;;;;;4979962;28;94126;-63
2024/01/05 09:33:49;;;;;;;2.13;1.63;;;23.30;51.70;;;;;;4980664;28;93793;-63
2024/01/05 09:36:18;;;;;;;3.60;1.93;;;23.30;51.60;;;;;;4980786;28;91957;-63
2024/01/05 09:38:47;;;;;;;3.57;2.10;;;23.20;51.40;;;;;;4976309;28;92092;-63
2024/01/05 09:41:15;;;;;;;1.57;1.17;;;23.20;51.50;;;;;;4959550;28;95331;-63
2024/01/05 09:43:44;;;;;;;3.13;1.70;;;23.20;52.20;;;;;;4966936;28;94813;-62
2024/01/05 09:46:12;;;;;;;2.87;1.67;;;23.20;51.50;;;;;;4980508;28;92032;-62
2024/01/05 09:48:40;;;;;;;1.73;1.63;;;23.20;51.60;;;;;;4969271;28;92088;-63
2024/01/05 09:51:18;;;;;;;2.73;1.73;;;23.10;51.70;;;;;;4960122;28;94341;-63
2024/01/05 09:53:47;;;;;;;1.57;1.07;;;23.10;51.80;;;;;;4979396;28;93541;-63
2024/01/05 09:56:15;;;;;;;1.40;1.30;;;23.00;51.70;;;;;;4973831;28;91919;-63
2024/01/05 09:58:44;;;;;;;1.73;1.60;;;23.00;51.80;;;;;;4960505;28;91255;-63
2024/01/05 10:01:15;;;;;;;1.60;1.50;;;23.00;51.80;;;;;;4960061;28;94243;-64
2024/01/05 10:03:45;;;;;;;1.20;1.10;;;23.00;51.90;;;;;;4957985;28;94120;-64
2024/01/05 10:06:17;;;;;;;2.83;1.60;;;22.90;51.80;;;;;;4958665;28;92948;-64
2024/01/05 10:08:46;;;;;;;1.70;1.60;;;23.00;52.00;;;;;;4960261;28;91945;-64
2024/01/05 10:11:15;;;;;;;3.33;1.70;;;22.90;51.90;;;;;;4959983;28;94237;-64
2024/01/05 10:13:53;;;;;;;2.30;1.60;;;22.90;52.00;;;;;;4960599;28;94491;-64
2024/01/05 10:16:24;;;;;;;2.77;1.03;;;22.90;51.90;;;;;;4962675;28;92059;-64
2024/01/05 10:18:52;;;;;;;2.60;1.83;;;22.90;51.90;;;;;;4964090;28;92140;-65
2024/01/05 10:21:20;;;;;;;2.53;1.60;;;22.90;52.00;;;;;;4958088;28;94083;-64
2024/01/05 10:23:50;;;;;;;1.83;0.83;;;22.80;52.00;;;;;;4960216;28;94140;-64
2024/01/05 10:26:18;;;;;;;1.23;1.10;;;22.80;52.20;;;;;;4979234;28;92003;-63
2024/01/05 10:28:48;;;;;;;2.03;1.40;;;22.80;52.20;;;;;;4966557;28;92258;-63
2024/01/05 10:31:17;;;;;;;0.70;0.70;;;22.70;52.50;;;;;;4961707;28;95676;-63
2024/01/05 10:33:49;;;;;;;1.37;1.13;;;22.70;52.30;;;;;;4965086;28;94731;-64
2024/01/05 10:36:19;;;;;;;1.73;1.23;;;22.70;52.30;;;;;;4968234;28;93330;-64
2024/01/05 10:38:48;;;;;;;1.17;0.97;;;22.70;52.30;;;;;;4964672;28;92177;-64
2024/01/05 10:41:18;;;;;;;1.53;1.00;;;22.70;52.40;;;;;;4969670;28;94245;-63
2024/01/05 10:43:46;;;;;;;1.87;1.13;;;22.70;52.80;;;;;;4959374;28;93795;-63
2024/01/05 10:46:17;;;;;;;1.57;1.20;;;22.70;52.40;;;;;;4959857;28;92030;-64
2024/01/05 10:48:45;;;;;;;4.97;1.40;;;22.70;52.40;;;;;;4960284;28;92851;-63
2024/01/05 10:51:15;;;;;;;1.37;1.10;;;22.80;52.40;;;;;;4955596;28;94108;-63
2024/01/05 10:53:44;;;;;;;2.93;1.27;;;22.70;52.50;;;;;;4968989;28;94964;-64
2024/01/05 10:56:12;;;;;;;2.00;1.03;;;22.70;52.50;;;;;;4962839;28;93033;-63
2024/01/05 10:58:42;;;;;;;0.83;0.77;;;22.70;52.50;;;;;;4959738;28;92086;-63
2024/01/05 11:01:10;;;;;;;2.23;1.53;;;22.60;52.50;;;;;;4966886;28;94108;-63
2024/01/05 11:03:42;;;;;;;2.03;1.30;;;22.60;52.50;;;;;;4978598;28;94013;-64
2024/01/05 11:06:11;;;;;;;2.20;1.00;;;22.60;52.50;;;;;;4966233;28;92047;-63
2024/01/05 11:08:42;;;;;;;0.87;0.77;;;22.60;52.60;;;;;;4962956;28;92105;-63
2024/01/05 11:11:14;;;;;;;1.53;0.80;;;22.60;52.60;;;;;;4958761;28;96124;-64
2024/01/05 11:14:17;;;;;;;1.90;1.40;;;22.60;52.80;;;;;;4958948;28;93843;-64
2024/01/05 11:17:35;;;;;;;1.87;1.30;;;22.50;52.70;;;;;;4936857;28;92161;-63
2024/01/05 11:20:25;;;;;;;1.97;1.43;;;22.40;52.60;;;;;;4917689;28;94152;-64
2024/01/05 11:22:53;;;;;;;1.83;1.20;;;22.50;52.80;;;;;;4917239;28;95099;-64
2024/01/05 11:25:21;;;;;;;1.83;0.80;;;22.40;52.80;;;;;;4928137;28;94806;-63
2024/01/05 11:27:49;;;;;;;0.70;0.70;;;22.40;52.90;;;;;;4942370;28;92246;-63
2024/01/05 11:30:41;;;;;;;1.20;1.10;;;22.40;52.90;;;;;;4977460;28;92126;-63
2024/01/05 11:33:09;;;;;;;8.17;2.40;;;22.40;52.80;;;;;;4977998;28;94200;-63
2024/01/05 11:35:41;;;;;;;3.87;2.20;;;22.50;52.90;;;;;;4963019;28;93843;-62
2024/01/05 11:38:30;;;;;;;4.60;2.50;;;22.60;53.00;;;;;;4966084;28;92061;-62
2024/01/05 11:40:58;;;;;;;4.23;2.73;;;22.70;53.00;;;;;;4968718;28;91146;-63
2024/01/05 11:43:34;;;;;;;3.03;1.70;;;22.80;53.00;;;;;;4977618;28;94100;-62
2024/01/05 11:46:03;;;;;;;2.77;2.17;;;22.90;53.00;;;;;;4964720;28;93889;-62
2024/01/05 11:48:45;;;;;;;5.90;2.20;;;23.00;52.90;;;;;;4961992;28;92848;-62
2024/01/05 11:51:14;;;;;;;2.27;1.57;;;23.20;52.90;;;;;;4959332;28;92200;-63
2024/01/05 11:53:42;;;;;;;1.87;1.77;;;23.40;52.80;;;;;;4956350;28;94350;-63
2024/01/05 11:56:11;;;;;;;2.70;2.07;;;23.60;52.70;;;;;;4959785;28;93755;-63
2024/01/05 11:58:41;;;;;;;3.60;1.67;;;23.80;52.50;;;;;;4958655;28;92484;-62
2024/01/05 12:01:11;;;;;;;2.60;1.90;;;24.00;52.50;;;;;;4963616;28;92106;-63
2024/01/05 12:03:39;;;;;;;3.13;1.77;;;24.10;52.30;;;;;;4959153;28;94317;-63
2024/01/05 12:06:09;;;;;;;2.00;1.90;;;24.30;52.10;;;;;;4958075;28;94057;-63
2024/01/05 12:08:38;;;;;;;3.23;1.77;;;24.50;51.90;;;;;;4958738;28;91894;-63
2024/01/05 12:11:08;;;;;;;2.03;1.33;;;24.60;51.70;;;;;;4967838;28;92064;-63
2024/01/05 12:13:37;;;;;;;1.90;1.23;;;24.80;51.50;;;;;;4977783;28;95130;-63
2024/01/05 12:16:06;;;;;;;1.57;1.47;;;24.90;51.40;;;;;;4967641;28;94950;-62
2024/01/05 12:18:43;;;;;;;2.27;1.60;;;24.90;51.10;;;;;;4978096;28;92629;-63
2024/01/05 12:21:12;;;;;;;1.73;1.63;;;24.90;51.10;;;;;;4969211;28;92199;-63
2024/01/05 12:23:40;;;;;;;2.97;1.60;;;25.40;51.20;;;;;;4957926;28;94200;-63
2024/01/05 12:26:12;;;;;;;3.13;1.30;;;25.00;51.00;;;;;;4958159;28;96403;-63
2024/01/05 12:28:41;;;;;;;2.03;1.00;;;24.90;50.90;;;;;;4958442;28;91914;-63
2024/01/05 12:31:10;;;;;;;2.70;1.60;;;25.00;51.00;;;;;;4970369;28;91344;-63
2024/01/05 12:33:40;;;;;;;1.87;1.13;;;25.10;50.80;;;;;;4977225;28;93229;-63
2024/01/05 12:36:12;;;;;;;2.57;1.33;;;25.20;50.80;;;;;;4972288;28;94906;-63
2024/01/05 12:38:41;;;;;;;1.30;1.20;;;25.30;50.50;;;;;;4967614;28;92880;-63
2024/01/05 12:41:09;;;;;;;1.83;1.20;;;25.40;50.00;;;;;;4976418;28;92094;-63
2024/01/05 12:43:38;;;;;;;2.67;1.90;;;25.50;49.00;;;;;;4977935;28;94393;-63
2024/01/05 12:46:06;;;;;;;2.10;1.43;;;25.60;48.20;;;;;;4967125;28;93754;-63
2024/01/05 12:48:34;;;;;;;2.53;1.43;;;25.60;47.80;;;;;;4978125;28;92027;-63
2024/01/05 12:51:08;;;;;;;2.63;1.80;;;25.80;47.80;;;;;;4976394;28;92011;-62
2024/01/05 12:53:36;;;;;;;3.83;1.70;;;25.90;47.30;;;;;;4977367;28;94310;-63
2024/01/05 12:56:09;;;;;;;2.73;2.07;;;25.90;47.20;;;;;;4972065;28;94077;-63
2024/01/05 12:58:41;;;;;;;4.20;2.23;;;25.90;46.90;;;;;;4977864;28;92464;-63